sensor_id;sensor_type;location;lat;lon;timestamp;temperature;humidity
74923;HTU21D;64715;44.760;37.678;2023-11-19T00:00:48;8.22;77.20
74923;HTU21D;64715;44.760;37.678;2023-11-19T00:01:49;8.21;77.44
74923;HTU21D;64715;44.760;37.678;2023-11-19T00:02:50;8.22;77.40
74923;HTU21D;64715;44.760;37.678;2023-11-19T00:03:51;8.23;77.39
74923;HTU21D;64715;44.760;37.678;2023-11-19T00:04:52;8.23;77.58
74923;HTU21D;64715;44.760;37.678;2023-11-19T00:05:53;8.27;77.37
74923;HTU21D;64715;44.760;37.678;2023-11-19T00:06:54;8.28;77.40
74923;HTU21D;64715;44.760;37.678;2023-11-19T00:07:55;8.27;77.38
74923;HTU21D;64715;44.760;37.678;2023-11-19T00:08:56;8.24;77.57
74923;HTU21D;64715;44.760;37.678;2023-11-19T00:09:57;8.23;77.47
74923;HTU21D;64715;44.760;37.678;2023-11-19T00:10:58;8.21;77.44
74923;HTU21D;64715;44.760;37.678;2023-11-19T00:12:00;8.20;77.47
74923;HTU21D;64715;44.760;37.678;2023-11-19T00:13:01;8.20;77.46
74923;HTU21D;64715;44.760;37.678;2023-11-19T00:14:03;8.19;77.57
74923;HTU21D;64715;44.760;37.678;2023-11-19T00:15:05;8.17;77.63
74923;HTU21D;64715;44.760;37.678;2023-11-19T00:16:08;8.18;77.72
74923;HTU21D;64715;44.760;37.678;2023-11-19T00:17:10;8.16;77.44
74923;HTU21D;64715;44.760;37.678;2023-11-19T00:18:11;8.16;77.57
74923;HTU21D;64715;44.760;37.678;2023-11-19T00:19:12;8.15;77.65
74923;HTU21D;64715;44.760;37.678;2023-11-19T00:20:17;8.14;77.60
74923;HTU21D;64715;44.760;37.678;2023-11-19T00:21:18;8.14;77.72
74923;HTU21D;64715;44.760;37.678;2023-11-19T00:22:19;8.15;77.69
74923;HTU21D;64715;44.760;37.678;2023-11-19T00:23:22;8.16;77.86
74923;HTU21D;64715;44.760;37.678;2023-11-19T00:24:23;8.15;77.81
74923;HTU21D;64715;44.760;37.678;2023-11-19T00:25:24;8.15;77.66
74923;HTU21D;64715;44.760;37.678;2023-11-19T00:26:26;8.16;77.82
74923;HTU21D;64715;44.760;37.678;2023-11-19T00:27:27;8.13;77.93
74923;HTU21D;64715;44.760;37.678;2023-11-19T00:28:28;8.13;77.86
74923;HTU21D;64715;44.760;37.678;2023-11-19T00:29:29;8.14;77.82
74923;HTU21D;64715;44.760;37.678;2023-11-19T00:30:30;8.14;77.73
74923;HTU21D;64715;44.760;37.678;2023-11-19T00:31:31;8.14;77.82
74923;HTU21D;64715;44.760;37.678;2023-11-19T00:32:33;8.14;77.76
74923;HTU21D;64715;44.760;37.678;2023-11-19T00:33:34;8.12;77.98
74923;HTU21D;64715;44.760;37.678;2023-11-19T00:34:35;8.11;78.08
74923;HTU21D;64715;44.760;37.678;2023-11-19T00:35:36;8.09;78.07
74923;HTU21D;64715;44.760;37.678;2023-11-19T00:36:38;8.09;78.02
74923;HTU21D;64715;44.760;37.678;2023-11-19T00:37:38;8.07;78.05
74923;HTU21D;64715;44.760;37.678;2023-11-19T00:38:40;8.05;78.08
74923;HTU21D;64715;44.760;37.678;2023-11-19T00:39:41;8.04;78.08
74923;HTU21D;64715;44.760;37.678;2023-11-19T00:40:42;8.05;78.21
74923;HTU21D;64715;44.760;37.678;2023-11-19T00:41:44;8.06;78.18
74923;HTU21D;64715;44.760;37.678;2023-11-19T00:42:46;8.05;77.85
74923;HTU21D;64715;44.760;37.678;2023-11-19T00:43:48;8.05;78.02
74923;HTU21D;64715;44.760;37.678;2023-11-19T00:44:50;8.03;78.19
74923;HTU21D;64715;44.760;37.678;2023-11-19T00:45:52;8.05;78.27
74923;HTU21D;64715;44.760;37.678;2023-11-19T00:46:53;8.06;77.91
74923;HTU21D;64715;44.760;37.678;2023-11-19T00:47:54;8.06;78.20
74923;HTU21D;64715;44.760;37.678;2023-11-19T00:48:55;8.06;78.21
74923;HTU21D;64715;44.760;37.678;2023-11-19T00:49:56;8.06;78.24
74923;HTU21D;64715;44.760;37.678;2023-11-19T00:50:57;8.06;78.27
74923;HTU21D;64715;44.760;37.678;2023-11-19T00:51:58;8.06;78.19
74923;HTU21D;64715;44.760;37.678;2023-11-19T00:52:59;8.04;78.28
74923;HTU21D;64715;44.760;37.678;2023-11-19T00:54:00;8.05;78.51
74923;HTU21D;64715;44.760;37.678;2023-11-19T00:55:01;8.06;78.34
74923;HTU21D;64715;44.760;37.678;2023-11-19T00:56:02;8.05;78.39
74923;HTU21D;64715;44.760;37.678;2023-11-19T00:57:03;8.04;78.54
74923;HTU21D;64715;44.760;37.678;2023-11-19T00:58:04;8.05;78.49
74923;HTU21D;64715;44.760;37.678;2023-11-19T00:59:06;8.06;78.69
74923;HTU21D;64715;44.760;37.678;2023-11-19T01:00:09;8.06;78.81
74923;HTU21D;64715;44.760;37.678;2023-11-19T01:01:18;8.06;78.93
74923;HTU21D;64715;44.760;37.678;2023-11-19T01:02:19;8.05;78.66
74923;HTU21D;64715;44.760;37.678;2023-11-19T01:03:20;8.05;78.71
74923;HTU21D;64715;44.760;37.678;2023-11-19T01:04:21;8.05;78.71
74923;HTU21D;64715;44.760;37.678;2023-11-19T01:05:22;8.03;78.76
74923;HTU21D;64715;44.760;37.678;2023-11-19T01:06:27;8.02;79.02
74923;HTU21D;64715;44.760;37.678;2023-11-19T01:07:29;8.00;79.01
74923;HTU21D;64715;44.760;37.678;2023-11-19T01:08:29;7.98;78.86
74923;HTU21D;64715;44.760;37.678;2023-11-19T01:09:31;7.97;79.01
74923;HTU21D;64715;44.760;37.678;2023-11-19T01:10:38;7.93;78.86
74923;HTU21D;64715;44.760;37.678;2023-11-19T01:11:39;7.90;78.83
74923;HTU21D;64715;44.760;37.678;2023-11-19T01:12:40;7.91;78.76
74923;HTU21D;64715;44.760;37.678;2023-11-19T01:13:41;7.88;78.63
74923;HTU21D;64715;44.760;37.678;2023-11-19T01:14:42;7.89;78.82
74923;HTU21D;64715;44.760;37.678;2023-11-19T01:15:43;7.87;78.75
74923;HTU21D;64715;44.760;37.678;2023-11-19T01:16:44;7.86;78.58
74923;HTU21D;64715;44.760;37.678;2023-11-19T01:17:45;7.85;78.64
74923;HTU21D;64715;44.760;37.678;2023-11-19T01:18:47;7.85;78.75
74923;HTU21D;64715;44.760;37.678;2023-11-19T01:19:49;7.84;78.60
74923;HTU21D;64715;44.760;37.678;2023-11-19T01:20:51;7.85;78.65
74923;HTU21D;64715;44.760;37.678;2023-11-19T01:21:52;7.86;78.46
74923;HTU21D;64715;44.760;37.678;2023-11-19T01:22:52;7.86;78.52
74923;HTU21D;64715;44.760;37.678;2023-11-19T01:23:53;7.86;78.64
74923;HTU21D;64715;44.760;37.678;2023-11-19T01:24:55;7.86;78.53
74923;HTU21D;64715;44.760;37.678;2023-11-19T01:25:56;7.89;78.47
74923;HTU21D;64715;44.760;37.678;2023-11-19T01:26:57;7.88;78.60
74923;HTU21D;64715;44.760;37.678;2023-11-19T01:28:00;7.89;78.50
74923;HTU21D;64715;44.760;37.678;2023-11-19T01:29:03;7.88;78.47
74923;HTU21D;64715;44.760;37.678;2023-11-19T01:30:05;7.87;78.43
74923;HTU21D;64715;44.760;37.678;2023-11-19T01:31:11;7.86;78.43
74923;HTU21D;64715;44.760;37.678;2023-11-19T01:32:12;7.87;78.37
74923;HTU21D;64715;44.760;37.678;2023-11-19T01:33:13;7.84;78.28
74923;HTU21D;64715;44.760;37.678;2023-11-19T01:34:14;7.85;78.33
74923;HTU21D;64715;44.760;37.678;2023-11-19T01:35:15;7.85;78.21
74923;HTU21D;64715;44.760;37.678;2023-11-19T01:36:16;7.84;78.30
74923;HTU21D;64715;44.760;37.678;2023-11-19T01:37:17;7.85;78.29
74923;HTU21D;64715;44.760;37.678;2023-11-19T01:38:18;7.86;78.30
74923;HTU21D;64715;44.760;37.678;2023-11-19T01:39:19;7.83;78.35
74923;HTU21D;64715;44.760;37.678;2023-11-19T01:40:21;7.83;78.02
74923;HTU21D;64715;44.760;37.678;2023-11-19T01:41:22;7.82;78.14
74923;HTU21D;64715;44.760;37.678;2023-11-19T01:42:23;7.79;78.17
74923;HTU21D;64715;44.760;37.678;2023-11-19T01:43:36;7.78;78.08
74923;HTU21D;64715;44.760;37.678;2023-11-19T01:44:38;7.77;78.05
74923;HTU21D;64715;44.760;37.678;2023-11-19T01:45:39;7.78;78.16
74923;HTU21D;64715;44.760;37.678;2023-11-19T01:46:42;7.76;78.23
74923;HTU21D;64715;44.760;37.678;2023-11-19T01:47:44;7.76;78.34
74923;HTU21D;64715;44.760;37.678;2023-11-19T01:48:46;7.76;78.42
74923;HTU21D;64715;44.760;37.678;2023-11-19T01:49:47;7.76;78.33
74923;HTU21D;64715;44.760;37.678;2023-11-19T01:50:48;7.75;78.35
74923;HTU21D;64715;44.760;37.678;2023-11-19T01:51:50;7.75;78.38
74923;HTU21D;64715;44.760;37.678;2023-11-19T01:52:54;7.75;78.36
74923;HTU21D;64715;44.760;37.678;2023-11-19T01:53:58;7.74;78.47
74923;HTU21D;64715;44.760;37.678;2023-11-19T01:54:59;7.75;78.45
74923;HTU21D;64715;44.760;37.678;2023-11-19T01:56:01;7.74;78.34
74923;HTU21D;64715;44.760;37.678;2023-11-19T01:57:03;7.74;78.32
74923;HTU21D;64715;44.760;37.678;2023-11-19T01:58:04;7.77;78.21
74923;HTU21D;64715;44.760;37.678;2023-11-19T01:59:05;7.74;78.20
74923;HTU21D;64715;44.760;37.678;2023-11-19T02:00:09;7.76;78.18
74923;HTU21D;64715;44.760;37.678;2023-11-19T02:01:17;7.76;78.41
74923;HTU21D;64715;44.760;37.678;2023-11-19T02:02:19;7.77;78.37
74923;HTU21D;64715;44.760;37.678;2023-11-19T02:03:24;7.76;78.08
74923;HTU21D;64715;44.760;37.678;2023-11-19T02:04:27;7.76;78.43
74923;HTU21D;64715;44.760;37.678;2023-11-19T02:05:28;7.77;78.24
74923;HTU21D;64715;44.760;37.678;2023-11-19T02:06:30;7.78;78.13
74923;HTU21D;64715;44.760;37.678;2023-11-19T02:07:32;7.78;78.09
74923;HTU21D;64715;44.760;37.678;2023-11-19T02:08:34;7.79;78.11
74923;HTU21D;64715;44.760;37.678;2023-11-19T02:09:35;7.78;78.23
74923;HTU21D;64715;44.760;37.678;2023-11-19T02:10:36;7.81;78.24
74923;HTU21D;64715;44.760;37.678;2023-11-19T02:11:39;7.83;78.13
74923;HTU21D;64715;44.760;37.678;2023-11-19T02:12:41;7.84;78.27
74923;HTU21D;64715;44.760;37.678;2023-11-19T02:13:45;7.83;78.16
74923;HTU21D;64715;44.760;37.678;2023-11-19T02:14:46;7.84;78.28
74923;HTU21D;64715;44.760;37.678;2023-11-19T02:15:47;7.83;78.12
74923;HTU21D;64715;44.760;37.678;2023-11-19T02:16:48;7.83;78.24
74923;HTU21D;64715;44.760;37.678;2023-11-19T02:17:50;7.84;78.14
74923;HTU21D;64715;44.760;37.678;2023-11-19T02:18:51;7.84;78.34
74923;HTU21D;64715;44.760;37.678;2023-11-19T02:19:53;7.85;78.32
74923;HTU21D;64715;44.760;37.678;2023-11-19T02:20:58;7.85;78.19
74923;HTU21D;64715;44.760;37.678;2023-11-19T02:22:00;7.88;78.28
74923;HTU21D;64715;44.760;37.678;2023-11-19T02:23:01;7.88;78.08
74923;HTU21D;64715;44.760;37.678;2023-11-19T02:24:07;7.87;78.29
74923;HTU21D;64715;44.760;37.678;2023-11-19T02:25:30;7.87;78.14
74923;HTU21D;64715;44.760;37.678;2023-11-19T02:28:46;7.84;78.20
74923;HTU21D;64715;44.760;37.678;2023-11-19T02:29:47;7.84;78.22
74923;HTU21D;64715;44.760;37.678;2023-11-19T02:30:48;7.83;78.23
74923;HTU21D;64715;44.760;37.678;2023-11-19T02:31:49;7.83;78.21
74923;HTU21D;64715;44.760;37.678;2023-11-19T02:32:50;7.82;78.34
74923;HTU21D;64715;44.760;37.678;2023-11-19T02:33:51;7.83;78.38
74923;HTU21D;64715;44.760;37.678;2023-11-19T02:34:52;7.83;78.41
74923;HTU21D;64715;44.760;37.678;2023-11-19T02:35:53;7.83;78.40
74923;HTU21D;64715;44.760;37.678;2023-11-19T02:36:54;7.83;78.36
74923;HTU21D;64715;44.760;37.678;2023-11-19T02:37:55;7.81;78.53
74923;HTU21D;64715;44.760;37.678;2023-11-19T02:38:56;7.82;78.52
74923;HTU21D;64715;44.760;37.678;2023-11-19T02:39:57;7.81;78.48
74923;HTU21D;64715;44.760;37.678;2023-11-19T02:41:04;7.79;78.45
74923;HTU21D;64715;44.760;37.678;2023-11-19T02:42:08;7.79;78.51
74923;HTU21D;64715;44.760;37.678;2023-11-19T02:43:10;7.78;78.49
74923;HTU21D;64715;44.760;37.678;2023-11-19T02:44:11;7.78;78.53
74923;HTU21D;64715;44.760;37.678;2023-11-19T02:45:14;7.79;78.50
74923;HTU21D;64715;44.760;37.678;2023-11-19T02:46:15;7.77;78.31
74923;HTU21D;64715;44.760;37.678;2023-11-19T02:47:18;7.77;78.40
74923;HTU21D;64715;44.760;37.678;2023-11-19T02:48:22;7.77;78.66
74923;HTU21D;64715;44.760;37.678;2023-11-19T02:49:23;7.76;78.43
74923;HTU21D;64715;44.760;37.678;2023-11-19T02:50:25;7.75;78.56
74923;HTU21D;64715;44.760;37.678;2023-11-19T02:51:26;7.74;78.57
74923;HTU21D;64715;44.760;37.678;2023-11-19T02:52:28;7.76;78.58
74923;HTU21D;64715;44.760;37.678;2023-11-19T02:53:32;7.76;78.40
74923;HTU21D;64715;44.760;37.678;2023-11-19T02:54:33;7.77;78.43
74923;HTU21D;64715;44.760;37.678;2023-11-19T02:55:35;7.78;78.38
74923;HTU21D;64715;44.760;37.678;2023-11-19T02:56:42;7.77;78.43
74923;HTU21D;64715;44.760;37.678;2023-11-19T02:57:43;7.77;78.59
74923;HTU21D;64715;44.760;37.678;2023-11-19T02:58:50;7.77;78.43
74923;HTU21D;64715;44.760;37.678;2023-11-19T02:59:51;7.79;78.27
74923;HTU21D;64715;44.760;37.678;2023-11-19T03:00:52;7.78;78.58
74923;HTU21D;64715;44.760;37.678;2023-11-19T03:02:01;7.79;78.31
74923;HTU21D;64715;44.760;37.678;2023-11-19T03:03:02;7.79;78.39
74923;HTU21D;64715;44.760;37.678;2023-11-19T03:04:18;7.78;78.47
74923;HTU21D;64715;44.760;37.678;2023-11-19T03:05:20;7.78;78.32
74923;HTU21D;64715;44.760;37.678;2023-11-19T03:06:21;7.79;78.32
74923;HTU21D;64715;44.760;37.678;2023-11-19T03:07:22;7.81;78.30
74923;HTU21D;64715;44.760;37.678;2023-11-19T03:08:23;7.82;78.40
74923;HTU21D;64715;44.760;37.678;2023-11-19T03:09:24;7.81;78.34
74923;HTU21D;64715;44.760;37.678;2023-11-19T03:10:25;7.81;78.35
74923;HTU21D;64715;44.760;37.678;2023-11-19T03:11:26;7.79;78.36
74923;HTU21D;64715;44.760;37.678;2023-11-19T03:12:27;7.78;78.50
74923;HTU21D;64715;44.760;37.678;2023-11-19T03:13:28;7.78;78.37
74923;HTU21D;64715;44.760;37.678;2023-11-19T03:14:29;7.78;78.58
74923;HTU21D;64715;44.760;37.678;2023-11-19T03:15:29;7.79;78.50
74923;HTU21D;64715;44.760;37.678;2023-11-19T03:16:30;7.79;78.40
74923;HTU21D;64715;44.760;37.678;2023-11-19T03:17:31;7.79;78.39
74923;HTU21D;64715;44.760;37.678;2023-11-19T03:18:32;7.77;78.44
74923;HTU21D;64715;44.760;37.678;2023-11-19T03:19:33;7.76;78.59
74923;HTU21D;64715;44.760;37.678;2023-11-19T03:20:34;7.77;78.54
74923;HTU21D;64715;44.760;37.678;2023-11-19T03:21:35;7.75;78.55
74923;HTU21D;64715;44.760;37.678;2023-11-19T03:22:37;7.75;78.82
74923;HTU21D;64715;44.760;37.678;2023-11-19T03:23:39;7.74;78.75
74923;HTU21D;64715;44.760;37.678;2023-11-19T03:24:40;7.75;78.71
74923;HTU21D;64715;44.760;37.678;2023-11-19T03:25:42;7.73;79.00
74923;HTU21D;64715;44.760;37.678;2023-11-19T03:26:48;7.73;79.03
74923;HTU21D;64715;44.760;37.678;2023-11-19T03:27:50;7.73;79.00
74923;HTU21D;64715;44.760;37.678;2023-11-19T03:28:51;7.74;79.11
74923;HTU21D;64715;44.760;37.678;2023-11-19T03:29:52;7.74;79.16
74923;HTU21D;64715;44.760;37.678;2023-11-19T03:30:53;7.76;79.22
74923;HTU21D;64715;44.760;37.678;2023-11-19T03:31:54;7.77;79.21
74923;HTU21D;64715;44.760;37.678;2023-11-19T03:32:56;7.78;79.31
74923;HTU21D;64715;44.760;37.678;2023-11-19T03:33:57;7.81;79.34
74923;HTU21D;64715;44.760;37.678;2023-11-19T03:34:58;7.81;79.45
74923;HTU21D;64715;44.760;37.678;2023-11-19T03:36:00;7.83;79.46
74923;HTU21D;64715;44.760;37.678;2023-11-19T03:37:01;7.81;79.14
74923;HTU21D;64715;44.760;37.678;2023-11-19T03:38:02;7.83;79.25
74923;HTU21D;64715;44.760;37.678;2023-11-19T03:39:03;7.83;79.29
74923;HTU21D;64715;44.760;37.678;2023-11-19T03:40:04;7.81;79.17
74923;HTU21D;64715;44.760;37.678;2023-11-19T03:41:15;7.82;79.08
74923;HTU21D;64715;44.760;37.678;2023-11-19T03:42:19;7.81;78.92
74923;HTU21D;64715;44.760;37.678;2023-11-19T03:43:21;7.82;78.89
74923;HTU21D;64715;44.760;37.678;2023-11-19T03:44:22;7.79;78.98
74923;HTU21D;64715;44.760;37.678;2023-11-19T03:45:23;7.79;78.90
74923;HTU21D;64715;44.760;37.678;2023-11-19T03:46:24;7.77;78.92
74923;HTU21D;64715;44.760;37.678;2023-11-19T03:47:25;7.76;79.05
74923;HTU21D;64715;44.760;37.678;2023-11-19T03:48:25;7.75;78.93
74923;HTU21D;64715;44.760;37.678;2023-11-19T03:49:26;7.76;78.94
74923;HTU21D;64715;44.760;37.678;2023-11-19T03:50:27;7.75;79.04
74923;HTU21D;64715;44.760;37.678;2023-11-19T03:51:29;7.75;79.10
74923;HTU21D;64715;44.760;37.678;2023-11-19T03:52:30;7.74;79.11
74923;HTU21D;64715;44.760;37.678;2023-11-19T03:53:31;7.75;79.08
74923;HTU21D;64715;44.760;37.678;2023-11-19T03:54:32;7.74;79.08
74923;HTU21D;64715;44.760;37.678;2023-11-19T03:55:33;7.75;79.07
74923;HTU21D;64715;44.760;37.678;2023-11-19T03:56:34;7.75;79.20
74923;HTU21D;64715;44.760;37.678;2023-11-19T03:57:35;7.75;79.07
74923;HTU21D;64715;44.760;37.678;2023-11-19T03:58:36;7.73;79.21
74923;HTU21D;64715;44.760;37.678;2023-11-19T03:59:39;7.73;79.27
74923;HTU21D;64715;44.760;37.678;2023-11-19T04:00:40;7.72;79.18
74923;HTU21D;64715;44.760;37.678;2023-11-19T04:01:41;7.74;79.22
74923;HTU21D;64715;44.760;37.678;2023-11-19T04:02:42;7.73;79.26
74923;HTU21D;64715;44.760;37.678;2023-11-19T04:03:43;7.74;79.29
74923;HTU21D;64715;44.760;37.678;2023-11-19T04:04:45;7.72;79.21
74923;HTU21D;64715;44.760;37.678;2023-11-19T04:05:45;7.71;79.08
74923;HTU21D;64715;44.760;37.678;2023-11-19T04:06:46;7.71;79.05
74923;HTU21D;64715;44.760;37.678;2023-11-19T04:07:47;7.68;79.36
74923;HTU21D;64715;44.760;37.678;2023-11-19T04:08:49;7.69;79.13
74923;HTU21D;64715;44.760;37.678;2023-11-19T04:09:50;7.67;79.17
74923;HTU21D;64715;44.760;37.678;2023-11-19T04:10:51;7.65;79.03
74923;HTU21D;64715;44.760;37.678;2023-11-19T04:11:52;7.65;79.30
74923;HTU21D;64715;44.760;37.678;2023-11-19T04:12:53;7.64;79.20
74923;HTU21D;64715;44.760;37.678;2023-11-19T04:13:54;7.64;79.19
74923;HTU21D;64715;44.760;37.678;2023-11-19T04:14:55;7.65;79.17
74923;HTU21D;64715;44.760;37.678;2023-11-19T04:15:56;7.67;79.09
74923;HTU21D;64715;44.760;37.678;2023-11-19T04:16:57;7.65;79.09
74923;HTU21D;64715;44.760;37.678;2023-11-19T04:17:58;7.64;79.17
74923;HTU21D;64715;44.760;37.678;2023-11-19T04:18:59;7.64;79.13
74923;HTU21D;64715;44.760;37.678;2023-11-19T04:20:00;7.64;79.04
74923;HTU21D;64715;44.760;37.678;2023-11-19T04:21:06;7.65;79.09
74923;HTU21D;64715;44.760;37.678;2023-11-19T04:22:07;7.65;78.98
74923;HTU21D;64715;44.760;37.678;2023-11-19T04:23:11;7.65;78.97
74923;HTU21D;64715;44.760;37.678;2023-11-19T04:24:12;7.65;79.02
74923;HTU21D;64715;44.760;37.678;2023-11-19T04:25:15;7.65;78.86
74923;HTU21D;64715;44.760;37.678;2023-11-19T04:26:17;7.65;78.94
74923;HTU21D;64715;44.760;37.678;2023-11-19T04:27:18;7.64;79.13
74923;HTU21D;64715;44.760;37.678;2023-11-19T04:28:19;7.63;79.06
74923;HTU21D;64715;44.760;37.678;2023-11-19T04:29:20;7.64;79.03
74923;HTU21D;64715;44.760;37.678;2023-11-19T04:30:21;7.64;79.11
74923;HTU21D;64715;44.760;37.678;2023-11-19T04:31:23;7.63;78.98
74923;HTU21D;64715;44.760;37.678;2023-11-19T04:32:24;7.63;79.04
74923;HTU21D;64715;44.760;37.678;2023-11-19T04:33:27;7.62;79.09
74923;HTU21D;64715;44.760;37.678;2023-11-19T04:34:28;7.62;79.11
74923;HTU21D;64715;44.760;37.678;2023-11-19T04:35:29;7.62;79.10
74923;HTU21D;64715;44.760;37.678;2023-11-19T04:36:29;7.62;79.11
74923;HTU21D;64715;44.760;37.678;2023-11-19T04:37:31;7.61;79.29
74923;HTU21D;64715;44.760;37.678;2023-11-19T04:38:31;7.62;79.27
74923;HTU21D;64715;44.760;37.678;2023-11-19T04:39:32;7.62;79.17
74923;HTU21D;64715;44.760;37.678;2023-11-19T04:40:33;7.63;79.21
74923;HTU21D;64715;44.760;37.678;2023-11-19T04:41:35;7.63;79.24
74923;HTU21D;64715;44.760;37.678;2023-11-19T04:42:36;7.63;79.37
74923;HTU21D;64715;44.760;37.678;2023-11-19T04:43:37;7.64;79.23
74923;HTU21D;64715;44.760;37.678;2023-11-19T04:44:37;7.65;79.22
74923;HTU21D;64715;44.760;37.678;2023-11-19T04:45:38;7.64;79.08
74923;HTU21D;64715;44.760;37.678;2023-11-19T04:46:40;7.64;79.24
74923;HTU21D;64715;44.760;37.678;2023-11-19T04:47:41;7.64;79.24
74923;HTU21D;64715;44.760;37.678;2023-11-19T04:48:42;7.64;79.34
74923;HTU21D;64715;44.760;37.678;2023-11-19T04:49:43;7.65;79.41
74923;HTU21D;64715;44.760;37.678;2023-11-19T04:50:44;7.67;79.25
74923;HTU21D;64715;44.760;37.678;2023-11-19T04:51:45;7.67;79.41
74923;HTU21D;64715;44.760;37.678;2023-11-19T04:52:50;7.67;79.45
74923;HTU21D;64715;44.760;37.678;2023-11-19T04:53:51;7.69;79.65
74923;HTU21D;64715;44.760;37.678;2023-11-19T04:54:52;7.69;79.57
74923;HTU21D;64715;44.760;37.678;2023-11-19T04:55:53;7.70;79.77
74923;HTU21D;64715;44.760;37.678;2023-11-19T04:56:54;7.70;79.67
74923;HTU21D;64715;44.760;37.678;2023-11-19T04:57:55;7.71;79.49
74923;HTU21D;64715;44.760;37.678;2023-11-19T04:58:55;7.73;79.61
74923;HTU21D;64715;44.760;37.678;2023-11-19T04:59:56;7.73;79.75
74923;HTU21D;64715;44.760;37.678;2023-11-19T05:00:57;7.73;79.76
74923;HTU21D;64715;44.760;37.678;2023-11-19T05:01:58;7.73;79.98
74923;HTU21D;64715;44.760;37.678;2023-11-19T05:02:59;7.72;79.49
74923;HTU21D;64715;44.760;37.678;2023-11-19T05:04:00;7.74;79.71
74923;HTU21D;64715;44.760;37.678;2023-11-19T05:05:02;7.73;79.46
74923;HTU21D;64715;44.760;37.678;2023-11-19T05:06:05;7.72;79.63
74923;HTU21D;64715;44.760;37.678;2023-11-19T05:07:06;7.73;79.62
74923;HTU21D;64715;44.760;37.678;2023-11-19T05:08:07;7.74;79.46
74923;HTU21D;64715;44.760;37.678;2023-11-19T05:09:08;7.75;79.53
74923;HTU21D;64715;44.760;37.678;2023-11-19T05:10:09;7.73;79.43
74923;HTU21D;64715;44.760;37.678;2023-11-19T05:11:10;7.74;79.64
74923;HTU21D;64715;44.760;37.678;2023-11-19T05:12:18;7.73;79.67
74923;HTU21D;64715;44.760;37.678;2023-11-19T05:13:19;7.74;79.56
74923;HTU21D;64715;44.760;37.678;2023-11-19T05:14:20;7.74;79.61
74923;HTU21D;64715;44.760;37.678;2023-11-19T05:15:22;7.73;79.61
74923;HTU21D;64715;44.760;37.678;2023-11-19T05:16:23;7.73;79.63
74923;HTU21D;64715;44.760;37.678;2023-11-19T05:17:24;7.73;79.68
74923;HTU21D;64715;44.760;37.678;2023-11-19T05:18:25;7.73;79.75
74923;HTU21D;64715;44.760;37.678;2023-11-19T05:19:26;7.72;79.71
74923;HTU21D;64715;44.760;37.678;2023-11-19T05:20:26;7.72;79.69
74923;HTU21D;64715;44.760;37.678;2023-11-19T05:21:27;7.72;79.68
74923;HTU21D;64715;44.760;37.678;2023-11-19T05:22:28;7.72;79.92
74923;HTU21D;64715;44.760;37.678;2023-11-19T05:23:29;7.73;79.73
74923;HTU21D;64715;44.760;37.678;2023-11-19T05:24:31;7.73;79.85
74923;HTU21D;64715;44.760;37.678;2023-11-19T05:25:32;7.72;79.62
74923;HTU21D;64715;44.760;37.678;2023-11-19T05:26:33;7.72;79.75
74923;HTU21D;64715;44.760;37.678;2023-11-19T05:27:38;7.73;79.60
74923;HTU21D;64715;44.760;37.678;2023-11-19T05:28:39;7.72;79.75
74923;HTU21D;64715;44.760;37.678;2023-11-19T05:29:40;7.74;79.66
74923;HTU21D;64715;44.760;37.678;2023-11-19T05:30:42;7.73;79.68
74923;HTU21D;64715;44.760;37.678;2023-11-19T05:31:43;7.74;79.68
74923;HTU21D;64715;44.760;37.678;2023-11-19T05:32:44;7.75;79.62
74923;HTU21D;64715;44.760;37.678;2023-11-19T05:33:45;7.74;79.78
74923;HTU21D;64715;44.760;37.678;2023-11-19T05:34:46;7.74;79.78
74923;HTU21D;64715;44.760;37.678;2023-11-19T05:35:47;7.73;79.82
74923;HTU21D;64715;44.760;37.678;2023-11-19T05:36:48;7.74;79.91
74923;HTU21D;64715;44.760;37.678;2023-11-19T05:37:48;7.74;79.87
74923;HTU21D;64715;44.760;37.678;2023-11-19T05:38:50;7.74;79.88
74923;HTU21D;64715;44.760;37.678;2023-11-19T05:39:51;7.75;80.04
74923;HTU21D;64715;44.760;37.678;2023-11-19T05:40:52;7.77;79.83
74923;HTU21D;64715;44.760;37.678;2023-11-19T05:41:53;7.77;79.89
74923;HTU21D;64715;44.760;37.678;2023-11-19T05:42:54;7.77;79.91
74923;HTU21D;64715;44.760;37.678;2023-11-19T05:43:55;7.77;79.74
74923;HTU21D;64715;44.760;37.678;2023-11-19T05:44:56;7.78;79.76
74923;HTU21D;64715;44.760;37.678;2023-11-19T05:45:59;7.77;79.76
74923;HTU21D;64715;44.760;37.678;2023-11-19T05:47:02;7.78;79.89
74923;HTU21D;64715;44.760;37.678;2023-11-19T05:48:02;7.81;79.66
74923;HTU21D;64715;44.760;37.678;2023-11-19T05:49:05;7.82;79.86
74923;HTU21D;64715;44.760;37.678;2023-11-19T05:50:06;7.81;79.69
74923;HTU21D;64715;44.760;37.678;2023-11-19T05:51:07;7.82;79.75
74923;HTU21D;64715;44.760;37.678;2023-11-19T05:52:08;7.82;79.85
74923;HTU21D;64715;44.760;37.678;2023-11-19T05:53:10;7.79;79.75
74923;HTU21D;64715;44.760;37.678;2023-11-19T05:54:11;7.81;79.75
74923;HTU21D;64715;44.760;37.678;2023-11-19T05:55:14;7.81;79.66
74923;HTU21D;64715;44.760;37.678;2023-11-19T05:56:15;7.82;79.73
74923;HTU21D;64715;44.760;37.678;2023-11-19T05:57:16;7.81;79.64
74923;HTU21D;64715;44.760;37.678;2023-11-19T05:58:26;7.83;79.95
74923;HTU21D;64715;44.760;37.678;2023-11-19T05:59:29;7.82;79.70
74923;HTU21D;64715;44.760;37.678;2023-11-19T06:00:30;7.84;79.74
74923;HTU21D;64715;44.760;37.678;2023-11-19T06:01:31;7.85;79.97
74923;HTU21D;64715;44.760;37.678;2023-11-19T06:02:33;7.88;79.82
74923;HTU21D;64715;44.760;37.678;2023-11-19T06:03:34;7.89;79.73
74923;HTU21D;64715;44.760;37.678;2023-11-19T06:04:35;7.90;79.72
74923;HTU21D;64715;44.760;37.678;2023-11-19T06:05:36;7.92;79.82
74923;HTU21D;64715;44.760;37.678;2023-11-19T06:06:37;7.93;79.69
74923;HTU21D;64715;44.760;37.678;2023-11-19T06:07:38;7.94;79.78
74923;HTU21D;64715;44.760;37.678;2023-11-19T06:08:39;7.93;79.65
74923;HTU21D;64715;44.760;37.678;2023-11-19T06:09:40;7.93;79.91
74923;HTU21D;64715;44.760;37.678;2023-11-19T06:10:43;7.94;79.86
74923;HTU21D;64715;44.760;37.678;2023-11-19T06:11:46;7.97;79.78
74923;HTU21D;64715;44.760;37.678;2023-11-19T06:12:47;8.00;79.79
74923;HTU21D;64715;44.760;37.678;2023-11-19T06:13:48;7.99;79.52
74923;HTU21D;64715;44.760;37.678;2023-11-19T06:14:50;8.02;79.85
74923;HTU21D;64715;44.760;37.678;2023-11-19T06:15:51;8.03;79.61
74923;HTU21D;64715;44.760;37.678;2023-11-19T06:16:52;8.04;79.73
74923;HTU21D;64715;44.760;37.678;2023-11-19T06:17:53;8.07;79.78
74923;HTU21D;64715;44.760;37.678;2023-11-19T06:18:55;8.09;79.96
74923;HTU21D;64715;44.760;37.678;2023-11-19T06:19:56;8.12;79.62
74923;HTU21D;64715;44.760;37.678;2023-11-19T06:20:57;8.15;79.84
74923;HTU21D;64715;44.760;37.678;2023-11-19T06:21:58;8.15;79.53
74923;HTU21D;64715;44.760;37.678;2023-11-19T06:22:59;8.16;79.75
74923;HTU21D;64715;44.760;37.678;2023-11-19T06:24:00;8.17;79.66
74923;HTU21D;64715;44.760;37.678;2023-11-19T06:25:02;8.17;79.65
74923;HTU21D;64715;44.760;37.678;2023-11-19T06:26:08;8.18;79.71